Time;durP1;ratioP1;P1;durP2;ratioP2;P2;SDS_P1;SDS_P2;PMS_P1;PMS_P2;Temp;Humidity;BMP_temperature;BMP_pressure;BME280_temperature;BME280_humidity;BME280_pressure;Samples;Min_cycle;Max_cycle;Signal;HPM_P1;HPM_P2
2023/01/20 00:00:21;;;;;;;10.07;6.20;;;;;;;18.13;42.85;100954.69;5034320;28;20033;-70
2023/01/20 00:02:46;;;;;;;8.43;5.72;;;;;;;18.11;42.93;100953.13;5033143;28;21140;-69
2023/01/20 00:05:11;;;;;;;10.13;5.80;;;;;;;18.09;43.10;100966.44;5033908;28;20080;-70
2023/01/20 00:07:36;;;;;;;9.18;5.78;;;;;;;18.11;42.81;100974.22;5033341;28;20454;-69
2023/01/20 00:10:02;;;;;;;8.90;6.13;;;;;;;18.05;42.82;100970.25;5033641;28;20068;-70
2023/01/20 00:12:30;;;;;;;10.20;6.25;;;;;;;18.08;42.72;100972.66;5034114;28;20466;-71
2023/01/20 00:14:55;;;;;;;9.90;6.20;;;;;;;18.06;42.84;100985.13;5033288;28;20088;-70
2023/01/20 00:17:21;;;;;;;8.90;6.20;;;;;;;18.02;42.66;100981.03;5033855;28;20057;-71
2023/01/20 00:19:46;;;;;;;9.20;6.55;;;;;;;18.00;42.92;100972.41;5033132;28;20880;-70
2023/01/20 00:22:11;;;;;;;9.20;6.57;;;;;;;17.99;43.07;100975.19;5015597;28;20034;-69
2023/01/20 00:24:36;;;;;;;10.93;6.80;;;;;;;17.98;42.72;100979.63;5033028;28;20044;-72
2023/01/20 00:27:02;;;;;;;9.80;6.60;;;;;;;18.02;42.71;100985.50;5033614;28;20301;-69
2023/01/20 00:29:27;;;;;;;9.43;6.40;;;;;;;17.95;42.96;100979.88;5033310;28;20944;-69
2023/01/20 00:31:52;;;;;;;9.40;6.22;;;;;;;17.92;42.74;100983.56;5033953;28;20048;-69
2023/01/20 00:34:18;;;;;;;8.40;6.40;;;;;;;17.95;42.74;100991.25;5033189;28;20067;-69
2023/01/20 00:36:43;;;;;;;8.50;6.30;;;;;;;17.91;42.94;100988.97;5033274;28;20729;-69
2023/01/20 00:39:08;;;;;;;7.90;6.13;;;;;;;17.92;42.68;100991.47;5033183;28;20029;-70
2023/01/20 00:41:34;;;;;;;8.85;6.47;;;;;;;17.90;42.80;100992.56;5032749;28;20029;-69
2023/01/20 00:43:59;;;;;;;8.70;6.22;;;;;;;17.90;42.91;100995.22;5033227;28;20044;-71
2023/01/20 00:46:24;;;;;;;9.00;6.88;;;;;;;17.91;42.79;101000.38;5032668;28;20041;-70
2023/01/20 00:48:49;;;;;;;9.43;6.70;;;;;;;17.89;43.08;101012.81;5033293;28;20083;-69
2023/01/20 00:51:15;;;;;;;9.43;7.05;;;;;;;17.85;42.94;101006.06;5032188;28;20060;-70
2023/01/20 00:53:40;;;;;;;11.05;7.35;;;;;;;17.87;43.07;101000.69;5032457;28;20033;-69
2023/01/20 00:56:06;;;;;;;10.32;6.90;;;;;;;17.86;42.82;101005.09;5032886;28;20536;-69
2023/01/20 00:58:31;;;;;;;11.77;7.10;;;;;;;17.83;42.98;100996.59;5033111;28;20037;-70
2023/01/20 01:00:57;;;;;;;10.40;7.05;;;;;;;17.86;42.84;101012.19;5032456;28;20033;-69
2023/01/20 01:03:23;;;;;;;8.77;6.90;;;;;;;17.79;43.11;101008.34;5032342;28;20096;-69
2023/01/20 01:05:48;;;;;;;9.70;6.90;;;;;;;17.80;43.10;101007.38;5032996;28;20025;-70
2023/01/20 01:08:14;;;;;;;12.63;7.30;;;;;;;17.81;42.81;101016.97;5032982;28;20432;-69
2023/01/20 01:10:39;;;;;;;10.35;6.82;;;;;;;17.80;42.85;101017.91;5032043;28;20531;-70
2023/01/20 01:13:06;;;;;;;9.88;6.80;;;;;;;17.79;42.67;101024.19;5032503;28;20040;-68
2023/01/20 01:15:31;;;;;;;9.98;7.57;;;;;;;17.77;42.49;101026.94;5033020;28;20068;-68
2023/01/20 01:17:58;;;;;;;11.50;7.25;;;;;;;17.76;42.62;101036.59;5030957;28;20069;-69
2023/01/20 01:20:24;;;;;;;10.25;7.50;;;;;;;17.74;42.55;101032.44;5031867;28;20037;-69
2023/01/20 01:22:50;;;;;;;10.50;7.18;;;;;;;17.74;42.58;101040.34;5032654;28;20048;-70
2023/01/20 01:25:15;;;;;;;11.73;7.38;;;;;;;17.75;42.63;101039.38;5031778;28;20540;-69
2023/01/20 01:27:41;;;;;;;9.93;7.47;;;;;;;17.69;42.71;101038.06;5032820;28;20388;-69
2023/01/20 01:30:07;;;;;;;9.38;6.93;;;;;;;17.69;42.68;101035.41;5032622;28;20040;-71
2023/01/20 01:32:32;;;;;;;11.57;7.28;;;;;;;17.68;42.88;101038.16;5032426;28;20109;-69
2023/01/20 01:34:57;;;;;;;10.75;7.70;;;;;;;17.72;42.42;101042.22;5031944;28;20108;-69
2023/01/20 01:37:22;;;;;;;11.18;7.57;;;;;;;17.69;42.48;101047.72;5031670;28;20393;-70
2023/01/20 01:39:48;;;;;;;11.57;7.45;;;;;;;17.66;42.56;101037.44;5031836;28;20029;-71
2023/01/20 01:42:16;;;;;;;10.95;7.03;;;;;;;17.66;42.54;101042.72;5026917;28;20053;-70
2023/01/20 01:45:09;;;;;;;10.88;7.28;;;;;;;17.67;42.50;101044.38;5024575;28;20041;-69
2023/01/20 01:48:06;;;;;;;10.32;7.47;;;;;;;17.61;41.29;101037.81;5031436;28;20457;-69
2023/01/20 01:50:55;;;;;;;10.85;7.07;;;;;;;17.59;41.03;101040.56;5017134;28;20278;-70
2023/01/20 01:53:21;;;;;;;10.25;7.32;;;;;;;17.63;40.26;101048.22;5030752;28;20402;-69
2023/01/20 01:55:56;;;;;;;8.98;6.88;;;;;;;17.59;40.26;101050.22;5031813;28;20037;-70
2023/01/20 01:58:26;;;;;;;12.27;6.93;;;;;;;17.59;40.35;101050.22;5031945;28;21003;-68
2023/01/20 02:00:51;;;;;;;10.82;7.28;;;;;;;17.63;40.17;101053.50;5031295;28;20460;-68
2023/01/20 02:03:17;;;;;;;10.73;7.43;;;;;;;17.61;39.81;101044.84;5032314;28;20029;-70
2023/01/20 02:05:45;;;;;;;11.75;7.22;;;;;;;17.58;40.02;101044.13;5031847;28;20030;-69
2023/01/20 02:08:10;;;;;;;9.07;6.82;;;;;;;17.60;39.88;101049.28;5031150;28;21256;-68
2023/01/20 02:10:35;;;;;;;11.10;7.35;;;;;;;17.56;39.86;101043.41;5031317;28;20148;-68
2023/01/20 02:13:01;;;;;;;10.45;7.13;;;;;;;17.59;39.60;101048.47;5030300;28;20038;-69
2023/01/20 02:15:33;;;;;;;10.48;7.25;;;;;;;17.53;39.62;101048.91;5031474;28;20040;-69
2023/01/20 02:18:24;;;;;;;10.82;7.20;;;;;;;17.58;39.39;101053.84;5031462;28;20477;-68
2023/01/20 02:21:07;;;;;;;10.65;6.97;;;;;;;17.56;39.12;101056.59;5014906;28;20052;-69
2023/01/20 02:24:06;;;;;;;10.10;7.18;;;;;;;17.57;38.99;101047.72;5031488;28;20126;-69
2023/01/20 02:26:53;;;;;;;10.07;6.57;;;;;;;17.57;38.63;101063.53;5031304;28;20401;-69
2023/01/20 02:29:53;;;;;;;11.75;7.75;;;;;;;17.51;38.53;101049.97;5021185;28;20366;-70
2023/01/20 02:32:27;;;;;;;9.98;7.35;;;;;;;17.55;38.58;101064.63;5030895;28;20037;-70
2023/01/20 02:35:01;;;;;;;10.30;7.10;;;;;;;17.51;38.45;101068.44;5031673;28;20409;-69
2023/01/20 02:37:32;;;;;;;9.43;6.88;;;;;;;17.49;38.31;101068.53;5031042;28;20067;-68
2023/01/20 02:40:12;;;;;;;10.90;7.57;;;;;;;17.52;38.56;101075.38;5030940;28;20037;-68
2023/01/20 02:43:08;;;;;;;11.18;7.03;;;;;;;17.47;38.64;101065.19;5030963;28;20465;-68
2023/01/20 02:45:44;;;;;;;10.75;7.13;;;;;;;17.51;38.30;101077.16;5025857;28;20065;-68
2023/01/20 02:48:19;;;;;;;12.15;7.38;;;;;;;17.47;38.15;101064.34;5030225;28;20026;-69
2023/01/20 02:51:08;;;;;;;9.65;6.55;;;;;;;17.47;38.25;101065.19;5031295;28;20411;-69
2023/01/20 02:53:43;;;;;;;10.57;6.72;;;;;;;17.46;38.18;101070.56;5031169;28;20041;-69
2023/01/20 02:56:11;;;;;;;10.10;6.72;;;;;;;17.45;38.21;101072.38;5030981;28;20099;-69
2023/01/20 02:58:53;;;;;;;9.85;6.93;;;;;;;17.44;38.13;101070.69;5031296;28;20086;-69
2023/01/20 03:01:30;;;;;;;9.40;6.93;;;;;;;17.46;37.93;101074.03;5030125;28;20033;-68
2023/01/20 03:03:59;;;;;;;10.13;6.97;;;;;;;17.41;37.95;101066.47;5031783;28;21064;-69
2023/01/20 03:06:30;;;;;;;10.60;6.97;;;;;;;17.44;37.80;101068.06;5030812;28;20087;-70
2023/01/20 03:08:59;;;;;;;10.13;7.10;;;;;;;17.39;37.67;101068.38;5030941;28;20051;-69
2023/01/20 03:11:25;;;;;;;10.07;6.53;;;;;;;17.44;37.93;101073.31;5030725;28;20091;-70
2023/01/20 03:14:13;;;;;;;11.82;6.88;;;;;;;17.40;37.82;101070.09;5030386;28;20037;-68
2023/01/20 03:16:39;;;;;;;10.43;7.03;;;;;;;17.44;37.60;101075.13;5013354;28;20520;-68
2023/01/20 03:19:04;;;;;;;8.52;6.30;;;;;;;17.43;37.51;101074.25;5030135;28;20130;-69
2023/01/20 03:21:32;;;;;;;10.65;6.60;;;;;;;17.38;37.55;101074.59;5030577;28;20064;-69
2023/01/20 03:24:00;;;;;;;9.45;6.45;;;;;;;17.41;37.53;101082.28;5030340;28;20061;-68
2023/01/20 03:26:25;;;;;;;8.77;5.97;;;;;;;17.37;37.29;101072.94;5033810;28;20045;-69
2023/01/20 03:28:53;;;;;;;9.00;6.35;;;;;;;17.40;37.39;101075.34;5034517;28;20037;-69
2023/01/20 03:31:34;;;;;;;9.18;6.45;;;;;;;17.36;37.34;101073.06;5034033;28;20037;-68
2023/01/20 03:34:03;;;;;;;9.00;6.32;;;;;;;17.37;37.54;101078.22;5034270;28;20068;-69
2023/01/20 03:36:31;;;;;;;10.57;7.47;;;;;;;17.39;37.48;101092.09;5034207;28;20037;-71
2023/01/20 03:38:58;;;;;;;8.85;6.50;;;;;;;17.39;37.19;101097.38;5033924;28;20065;-69
2023/01/20 03:41:29;;;;;;;10.07;6.18;;;;;;;17.39;37.06;101093.91;5033883;28;20389;-70
2023/01/20 03:44:08;;;;;;;9.10;5.68;;;;;;;17.39;37.41;101097.38;5034181;28;20049;-70
2023/01/20 03:46:43;;;;;;;10.18;6.40;;;;;;;17.38;37.17;101097.47;5034327;28;20036;-70
2023/01/20 03:49:34;;;;;;;8.65;6.03;;;;;;;17.40;37.24;101096.44;5034380;28;20032;-70
2023/01/20 03:51:59;;;;;;;9.05;6.30;;;;;;;17.40;37.08;101101.69;5034022;28;20116;-70
2023/01/20 03:54:33;;;;;;;7.93;5.90;;;;;;;17.39;37.34;101105.28;5033814;28;20151;-69
2023/01/20 03:57:09;;;;;;;9.38;6.30;;;;;;;17.38;37.20;101103.59;5033739;28;20274;-70
2023/01/20 03:59:39;;;;;;;9.98;6.60;;;;;;;17.39;37.34;101093.91;5033703;28;20048;-69
2023/01/20 04:02:06;;;;;;;9.00;6.30;;;;;;;17.36;37.35;101088.84;5033467;28;20393;-70
2023/01/20 04:04:35;;;;;;;8.45;5.88;;;;;;;17.41;37.27;101098.09;5015997;28;20144;-69
2023/01/20 04:07:04;;;;;;;9.38;6.00;;;;;;;17.39;37.06;101110.53;5033793;28;20036;-69
2023/01/20 04:09:36;;;;;;;9.90;6.78;;;;;;;17.39;37.32;101102.63;5034144;28;20041;-70
2023/01/20 04:12:02;;;;;;;9.80;6.68;;;;;;;17.43;37.55;101113.78;5033381;28;20048;-69
2023/01/20 04:14:27;;;;;;;10.57;6.45;;;;;;;17.39;37.27;101093.91;5033474;28;20045;-69
2023/01/20 04:16:56;;;;;;;10.18;6.30;;;;;;;17.43;37.22;101100.59;5033202;28;20828;-69
2023/01/20 04:19:22;;;;;;;9.23;6.32;;;;;;;17.41;37.46;101095.44;5033830;28;20072;-68
2023/01/20 04:21:52;;;;;;;9.43;6.18;;;;;;;17.47;37.98;101111.78;5033310;28;20095;-69
2023/01/20 04:24:28;;;;;;;9.57;6.43;;;;;;;17.46;38.73;101112.72;5033424;28;20068;-69
2023/01/20 04:26:53;;;;;;;9.95;6.30;;;;;;;17.40;38.88;101096.44;5033117;28;20040;-70
2023/01/20 04:29:19;;;;;;;8.63;6.00;;;;;;;17.42;38.69;101101.59;5047849;28;20037;-69
2023/01/20 04:31:44;;;;;;;10.93;6.78;;;;;;;17.47;38.87;101103.88;5033186;28;20032;-69
2023/01/20 04:34:14;;;;;;;11.02;7.07;;;;;;;17.43;39.38;101105.03;5033396;28;20036;-70
2023/01/20 04:36:40;;;;;;;10.00;6.15;;;;;;;17.46;39.42;101103.03;5033052;28;20032;-69
2023/01/20 04:39:05;;;;;;;9.35;6.45;;;;;;;17.44;39.55;101093.56;5033245;28;20381;-69
2023/01/20 04:41:30;;;;;;;9.63;6.07;;;;;;;17.47;39.67;101101.25;5033055;28;20032;-69
2023/01/20 04:43:56;;;;;;;10.15;6.43;;;;;;;17.43;39.58;101092.72;5032466;28;20056;-69
2023/01/20 04:46:21;;;;;;;9.48;5.90;;;;;;;17.45;39.66;101108.41;5033454;28;20051;-70
2023/01/20 04:48:46;;;;;;;9.60;6.88;;;;;;;17.43;39.66;101107.69;5033053;28;20045;-69
2023/01/20 04:51:12;;;;;;;10.20;7.05;;;;;;;17.47;39.94;101114.41;5033081;28;20457;-70
2023/01/20 04:53:38;;;;;;;11.10;8.15;;;;;;;17.48;40.12;101124.84;5033184;28;20033;-69
2023/01/20 04:56:03;;;;;;;10.40;6.50;;;;;;;17.46;39.99;101112.72;5032643;28;20095;-68
2023/01/20 04:58:28;;;;;;;9.07;6.57;;;;;;;17.48;39.85;101119.56;5032674;28;20039;-69
2023/01/20 05:00:54;;;;;;;10.88;6.50;;;;;;;17.43;40.16;101110.31;5032880;28;20025;-68
2023/01/20 05:03:19;;;;;;;7.70;5.72;;;;;;;17.45;40.28;101111.03;5032831;28;20044;-69
2023/01/20 05:05:53;;;;;;;9.65;5.88;;;;;;;17.49;40.27;101120.41;5033056;28;20393;-70
2023/01/20 05:08:19;;;;;;;10.90;6.35;;;;;;;17.46;40.48;101118.00;5032356;28;20116;-70
2023/01/20 05:10:44;;;;;;;9.65;6.22;;;;;;;17.49;40.57;101117.78;5032176;28;20691;-67
2023/01/20 05:13:09;;;;;;;8.88;6.13;;;;;;;17.47;40.62;101124.97;5032057;28;20385;-70
2023/01/20 05:15:34;;;;;;;9.18;6.15;;;;;;;17.46;40.20;101115.38;5032283;28;20091;-69
2023/01/20 05:18:00;;;;;;;9.10;6.15;;;;;;;17.46;40.57;101121.47;5022499;28;20057;-70
2023/01/20 05:20:25;;;;;;;9.07;6.07;;;;;;;17.49;40.59;101131.78;5032591;28;20053;-70
2023/01/20 05:22:50;;;;;;;9.07;5.90;;;;;;;17.48;40.85;101121.34;5031795;28;20403;-70
2023/01/20 05:25:16;;;;;;;9.45;6.05;;;;;;;17.50;40.59;101129.97;5032444;28;20474;-70
2023/01/20 05:27:41;;;;;;;8.57;5.80;;;;;;;17.47;40.65;101132.88;5032126;28;20037;-70
2023/01/20 05:30:07;;;;;;;8.68;5.75;;;;;;;17.46;40.44;101137.28;5031800;28;20457;-71
2023/01/20 05:32:33;;;;;;;9.23;5.18;;;;;;;17.49;40.32;101144.13;5031941;28;20029;-69
2023/01/20 05:34:58;;;;;;;11.23;5.00;;;;;;;17.45;40.24;101127.72;5031570;28;20115;-70
2023/01/20 05:37:23;;;;;;;8.82;4.82;;;;;;;17.54;40.12;101134.91;5032044;28;20040;-69
2023/01/20 05:39:48;;;;;;;8.30;4.75;;;;;;;17.54;40.11;101136.72;5031819;28;20033;-69
2023/01/20 05:42:14;;;;;;;8.52;4.72;;;;;;;17.59;40.27;101137.19;5031795;28;20025;-70
2023/01/20 05:44:40;;;;;;;8.98;5.20;;;;;;;17.63;40.04;101132.56;5031234;28;20057;-70
2023/01/20 05:47:05;;;;;;;7.68;4.60;;;;;;;17.70;40.17;101129.34;5031680;28;20127;-69
2023/01/20 05:49:30;;;;;;;7.78;4.50;;;;;;;17.75;40.11;101132.50;5031138;28;20032;-68
2023/01/20 05:51:56;;;;;;;7.57;4.80;;;;;;;17.79;40.08;101132.25;5031914;28;20440;-69
2023/01/20 05:54:21;;;;;;;8.55;4.80;;;;;;;17.82;40.09;101140.78;5031022;28;20044;-69
2023/01/20 05:56:47;;;;;;;7.90;4.47;;;;;;;17.88;39.97;101145.63;5031509;28;20029;-69
2023/01/20 05:59:12;;;;;;;8.43;4.65;;;;;;;17.91;39.98;101147.16;5032174;28;20035;-69
2023/01/20 06:01:37;;;;;;;7.13;4.23;;;;;;;17.92;40.11;101152.31;5031333;28;20041;-69
2023/01/20 06:04:03;;;;;;;8.60;4.32;;;;;;;17.93;40.16;101140.00;5031899;28;20292;-68
2023/01/20 06:06:28;;;;;;;9.18;4.40;;;;;;;17.95;40.21;101143.34;5031224;28;20039;-69
2023/01/20 06:08:53;;;;;;;8.57;4.43;;;;;;;17.98;40.10;101151.03;5031706;28;20063;-69
2023/01/20 06:11:19;;;;;;;8.93;4.80;;;;;;;18.03;40.23;101155.97;5031218;28;20025;-69
2023/01/20 06:13:48;;;;;;;8.25;4.10;;;;;;;18.03;40.23;101164.69;5031300;28;20473;-69
2023/01/20 06:16:15;;;;;;;7.85;4.38;;;;;;;18.02;40.23;101162.19;5031527;28;20111;-69
2023/01/20 06:18:40;;;;;;;7.15;4.22;;;;;;;18.05;40.09;101160.13;5030598;28;20030;-69
2023/01/20 06:21:06;;;;;;;9.85;4.50;;;;;;;18.07;39.96;101165.31;5031415;28;20561;-69
2023/01/20 06:23:31;;;;;;;7.57;4.30;;;;;;;18.07;40.18;101168.81;5031088;28;20033;-69
2023/01/20 06:26:04;;;;;;;7.20;4.30;;;;;;;18.07;40.31;101163.53;5031608;28;20035;-69
2023/01/20 06:28:31;;;;;;;8.83;4.30;;;;;;;18.04;40.13;101162.91;5031466;28;20477;-71
2023/01/20 06:31:02;;;;;;;7.25;4.25;;;;;;;18.03;40.21;101161.22;5031353;28;20037;-69
2023/01/20 06:33:27;;;;;;;8.18;4.22;;;;;;;18.06;40.47;101171.56;5031404;28;20069;-69
2023/01/20 06:35:54;;;;;;;5.90;3.90;;;;;;;18.08;40.20;101175.72;5030860;28;20067;-71
2023/01/20 06:38:21;;;;;;;7.30;3.97;;;;;;;18.08;40.27;101178.38;5031395;28;20033;-68
2023/01/20 06:40:46;;;;;;;7.05;4.30;;;;;;;18.06;40.31;101167.09;5030880;28;20040;-69
2023/01/20 06:43:11;;;;;;;8.95;4.43;;;;;;;18.07;40.25;101167.94;5030563;28;20889;-70
2023/01/20 06:45:37;;;;;;;7.35;4.47;;;;;;;18.06;40.26;101161.00;5031456;28;20065;-69
2023/01/20 06:48:02;;;;;;;8.73;4.53;;;;;;;18.07;40.15;101157.38;5031219;28;21006;-69
2023/01/20 06:50:28;;;;;;;7.25;4.40;;;;;;;18.07;40.30;101154.75;5030892;28;20374;-68
2023/01/20 06:52:54;;;;;;;6.80;4.30;;;;;;;18.10;40.12;101160.66;5030935;28;20032;-68
2023/01/20 06:55:20;;;;;;;8.57;4.50;;;;;;;18.08;40.21;101151.16;5030685;28;20469;-68
2023/01/20 06:57:45;;;;;;;7.93;4.75;;;;;;;18.10;39.87;101165.94;5030474;28;20029;-68
2023/01/20 07:00:11;;;;;;;7.45;4.60;;;;;;;18.09;40.10;101164.25;5033886;28;20049;-70
2023/01/20 07:02:36;;;;;;;9.63;4.65;;;;;;;18.07;40.10;101168.81;5035307;28;20140;-68
2023/01/20 07:05:02;;;;;;;8.68;4.70;;;;;;;18.03;40.41;101161.22;5033258;28;20120;-69
2023/01/20 07:07:27;;;;;;;7.57;4.50;;;;;;;18.03;40.33;101162.06;5035413;28;20051;-69
2023/01/20 07:09:55;;;;;;;10.50;5.07;;;;;;;18.05;40.68;101164.59;5034383;28;20033;-68
2023/01/20 07:12:20;;;;;;;6.95;4.10;;;;;;;18.04;40.87;101163.75;5034472;28;20336;-71
2023/01/20 07:14:45;;;;;;;9.30;4.50;;;;;;;18.05;41.08;101161.94;5034994;28;20079;-69
2023/01/20 07:17:11;;;;;;;8.00;4.60;;;;;;;18.04;41.01;101165.53;5034506;28;20029;-72
2023/01/20 07:19:36;;;;;;;7.40;4.22;;;;;;;18.05;41.16;101167.22;5035201;28;21268;-74
2023/01/20 07:22:02;;;;;;;7.75;4.47;;;;;;;18.05;41.41;101167.22;5034527;28;20040;-73
2023/01/20 07:24:27;;;;;;;10.52;4.75;;;;;;;18.09;41.38;101174.78;5035578;28;20335;-70
2023/01/20 07:26:53;;;;;;;9.73;4.50;;;;;;;18.08;41.38;101172.28;5034220;28;20029;-71
2023/01/20 07:29:18;;;;;;;6.38;4.32;;;;;;;18.07;41.64;101170.56;5034870;28;20052;-70
2023/01/20 07:31:44;;;;;;;8.10;4.35;;;;;;;18.07;41.61;101174.06;5034477;28;20029;-70
2023/01/20 07:34:09;;;;;;;7.97;4.80;;;;;;;18.11;41.65;101179.94;5034497;28;20037;-72
2023/01/20 07:36:35;;;;;;;7.25;4.20;;;;;;;18.10;41.44;101178.25;5034494;28;20493;-71
2023/01/20 07:39:00;;;;;;;8.05;4.68;;;;;;;18.12;41.66;101190.38;5034168;28;20029;-71
2023/01/20 07:41:25;;;;;;;7.57;4.30;;;;;;;18.08;41.75;101190.72;5033313;28;20513;-68
2023/01/20 07:43:52;;;;;;;9.95;4.20;;;;;;;18.09;41.54;101195.06;5033073;28;20444;-70
2023/01/20 07:46:18;;;;;;;9.70;5.15;;;;;;;18.10;41.67;101204.63;5033633;28;20052;-71
2023/01/20 07:48:43;;;;;;;9.70;4.57;;;;;;;18.08;41.87;101198.66;5034390;28;20037;-70
2023/01/20 07:51:12;;;;;;;8.35;4.15;;;;;;;18.10;42.06;101202.00;5034525;28;20075;-70
2023/01/20 07:53:45;;;;;;;7.55;4.13;;;;;;;18.09;41.82;101214.34;5034237;28;20048;-70
2023/01/20 07:56:12;;;;;;;7.68;4.03;;;;;;;18.09;41.66;101214.34;5048068;28;20056;-68
2023/01/20 07:58:38;;;;;;;7.70;4.25;;;;;;;18.11;41.71;101219.50;5033918;28;20037;-70
2023/01/20 08:01:15;;;;;;;9.90;3.97;;;;;;;18.11;41.82;101220.34;5033825;28;20849;-69
2023/01/20 08:03:41;;;;;;;8.35;4.82;;;;;;;18.11;41.86;101216.88;5033734;28;20033;-71
2023/01/20 08:06:09;;;;;;;7.68;4.22;;;;;;;18.09;42.07;101216.16;5033738;28;20047;-71
2023/01/20 08:08:35;;;;;;;8.98;3.95;;;;;;;18.12;42.16;101221.22;5033627;28;20041;-70
2023/01/20 08:11:01;;;;;;;9.77;4.03;;;;;;;18.13;41.88;101217.59;5032374;28;20037;-72
2023/01/20 08:13:28;;;;;;;10.05;4.10;;;;;;;18.13;42.01;101222.88;5033641;28;20033;-73
2023/01/20 08:15:53;;;;;;;8.02;4.00;;;;;;;18.12;41.88;101221.22;5033617;28;20037;-72
2023/01/20 08:18:18;;;;;;;7.05;3.92;;;;;;;18.10;42.16;101210.78;5033698;28;20067;-73
2023/01/20 08:20:44;;;;;;;7.53;3.83;;;;;;;18.16;42.21;101227.09;5033628;28;20470;-72
2023/01/20 08:23:09;;;;;;;7.47;3.45;;;;;;;18.15;41.91;101212.19;5033686;28;20025;-71
2023/01/20 08:25:34;;;;;;;7.10;3.55;;;;;;;18.15;42.22;101220.13;5033021;28;20033;-72
2023/01/20 08:27:59;;;;;;;6.63;3.42;;;;;;;18.11;42.02;101212.44;5033313;28;20125;-71
2023/01/20 08:30:25;;;;;;;5.72;3.50;;;;;;;18.04;42.23;101203.31;5033496;28;20044;-70
2023/01/20 08:32:50;;;;;;;7.38;4.05;;;;;;;18.19;42.09;101232.13;5017356;28;20079;-71
2023/01/20 08:35:15;;;;;;;7.68;3.42;;;;;;;18.16;42.26;101222.63;5053054;28;20864;-71
2023/01/20 08:37:41;;;;;;;6.65;3.53;;;;;;;18.20;41.97;101225.88;5051918;28;20127;-71
2023/01/20 08:40:08;;;;;;;5.97;3.13;;;;;;;18.20;42.45;101226.75;5052875;28;20027;-72
2023/01/20 08:42:35;;;;;;;6.47;2.97;;;;;;;18.22;42.36;101226.63;5052878;28;20035;-72
2023/01/20 08:45:01;;;;;;;5.47;2.83;;;;;;;18.24;42.26;101232.63;5052851;28;20048;-71
2023/01/20 08:47:26;;;;;;;7.30;3.30;;;;;;;18.24;42.20;101222.91;5049749;28;20052;-75
2023/01/20 08:49:52;;;;;;;9.05;3.40;;;;;;;18.26;42.73;101231.56;5053007;28;20527;-75
2023/01/20 08:52:18;;;;;;;5.95;3.55;;;;;;;18.27;42.70;101232.38;5052980;28;20033;-76
2023/01/20 08:54:43;;;;;;;8.18;3.72;;;;;;;18.28;42.62;101234.91;5052361;28;20039;-73
2023/01/20 08:57:08;;;;;;;5.65;3.20;;;;;;;18.24;42.89;101232.63;5053496;28;20036;-75
2023/01/20 08:59:34;;;;;;;8.50;3.55;;;;;;;18.25;42.48;101227.22;5051793;28;20032;-74
2023/01/20 09:01:59;;;;;;;8.60;3.75;;;;;;;18.25;42.71;101226.41;5051716;28;20040;-72
2023/01/20 09:04:24;;;;;;;7.45;3.50;;;;;;;18.29;42.72;101235.75;5050142;28;20040;-71
2023/01/20 09:06:51;;;;;;;5.88;3.25;;;;;;;18.31;42.39;101231.22;5050659;28;20028;-72
2023/01/20 09:09:18;;;;;;;6.43;3.70;;;;;;;18.30;42.84;101233.00;5052246;28;20029;-72
2023/01/20 09:11:49;;;;;;;7.47;3.50;;;;;;;18.31;43.05;101231.22;5051268;28;20495;-72
2023/01/20 09:14:14;;;;;;;9.68;3.17;;;;;;;18.39;42.73;101241.16;5051696;28;20086;-71
2023/01/20 09:16:40;;;;;;;6.18;3.38;;;;;;;18.39;42.89;101231.47;5058309;28;20037;-70
2023/01/20 09:19:05;;;;;;;8.73;3.63;;;;;;;18.45;42.40;101252.13;5050406;28;20036;-71
2023/01/20 09:21:31;;;;;;;7.13;3.50;;;;;;;18.41;42.25;101240.09;5049681;28;20024;-71
2023/01/20 09:23:56;;;;;;;5.55;3.42;;;;;;;18.41;42.65;101240.09;5050530;28;20946;-71
2023/01/20 09:26:21;;;;;;;7.80;3.25;;;;;;;18.41;42.41;101229.53;5051462;28;20067;-72
2023/01/20 09:28:46;;;;;;;6.05;3.60;;;;;;;18.42;42.23;101235.66;5051038;28;20042;-71
2023/01/20 09:31:12;;;;;;;7.60;3.30;;;;;;;18.42;42.40;101241.78;5051215;28;20025;-71
2023/01/20 09:33:38;;;;;;;7.10;3.50;;;;;;;18.41;42.30;101241.91;5051557;28;20040;-71
2023/01/20 09:36:05;;;;;;;6.88;3.58;;;;;;;18.43;42.38;101243.44;5051519;28;20052;-69
2023/01/20 09:44:34;;;;;;;8.48;3.70;;;;;;;18.42;42.43;101246.19;5051867;28;20067;-72
2023/01/20 09:47:32;;;;;;;7.57;3.28;;;;;;;18.50;42.45;101264.97;5057862;28;20423;-73
2023/01/20 09:53:05;;;;;;;;;;;;;;;18.58;41.27;101269.63;5051253;28;20044;-76
2023/01/20 09:55:43;;;;;;;5.65;3.15;;;;;;;18.52;42.21;101270.94;5050440;28;20866;-73
2023/01/20 09:58:24;;;;;;;7.55;4.10;;;;;;;18.49;42.48;101263.28;5051475;28;20481;-71
2023/01/20 10:01:23;;;;;;;5.88;3.03;;;;;;;18.52;42.65;101262.16;5057594;28;20440;-76
2023/01/20 10:04:19;;;;;;;5.60;3.08;;;;;;;18.52;42.59;101257.75;5051093;28;20698;-76
2023/01/20 10:06:47;;;;;;;6.95;2.75;;;;;;;18.47;42.38;101252.81;5058017;28;20028;-74
2023/01/20 10:09:48;;;;;;;8.57;3.08;;;;;;;18.52;42.26;101247.19;5051604;28;20508;-75
2023/01/20 10:12:17;;;;;;;9.02;2.63;;;;;;;18.49;42.63;101250.91;5010737;28;20516;-74
2023/01/20 10:14:47;;;;;;;6.55;3.03;;;;;;;18.51;42.68;101248.16;5048264;28;20044;-71
2023/01/20 10:17:20;;;;;;;5.93;2.55;;;;;;;18.48;42.61;101237.81;5050897;28;20039;-74
2023/01/20 10:20:02;;;;;;;4.80;2.40;;;;;;;18.52;42.71;101255.13;5051398;28;20037;-76
2023/01/20 10:22:47;;;;;;;7.32;2.63;;;;;;;18.51;42.83;101252.59;5050772;28;20029;-70
2023/01/20 10:25:27;;;;;;;6.85;2.85;;;;;;;18.56;42.99;101248.63;5051087;28;20032;-70
2023/01/20 10:27:57;;;;;;;7.30;2.40;;;;;;;18.59;43.06;101252.84;5050727;28;20543;-71
2023/01/20 10:30:29;;;;;;;7.03;1.98;;;;;;;18.60;43.09;101246.63;5049406;28;20048;-78
2023/01/20 10:33:10;;;;;;;5.50;2.20;;;;;;;18.61;43.25;101251.78;5050153;28;20033;-70
2023/01/20 10:35:53;;;;;;;4.25;2.45;;;;;;;18.60;43.48;101236.06;5049554;28;20037;-71
2023/01/20 10:38:38;;;;;;;3.35;1.88;;;;;;;18.55;43.11;101244.31;5049976;28;20025;-72
2023/01/20 10:41:19;;;;;;;4.32;1.98;;;;;;;18.59;43.06;101251.03;5048577;28;20087;-72
2023/01/20 10:43:46;;;;;;;4.80;1.85;;;;;;;18.56;43.06;101242.53;5051002;28;20126;-71
2023/01/20 10:46:51;;;;;;;4.25;2.08;;;;;;;18.60;43.20;101249.25;5052139;28;20147;-71
2023/01/20 10:49:28;;;;;;;4.43;2.00;;;;;;;18.56;43.24;101245.16;4979217;28;20058;-74
2023/01/20 10:52:15;;;;;;;4.22;2.00;;;;;;;18.55;43.13;101246.97;4979057;28;20053;-69
2023/01/20 10:54:47;;;;;;;6.05;1.98;;;;;;;18.54;43.26;101242.63;5028276;28;21304;-71
2023/01/20 10:57:14;;;;;;;4.40;2.00;;;;;;;18.49;43.36;101239.50;5050927;28;20564;-71
2023/01/20 10:59:45;;;;;;;4.13;1.95;;;;;;;18.51;43.16;101236.75;5051171;28;20048;-74
2023/01/20 11:02:40;;;;;;;4.05;1.98;;;;;;;18.53;43.29;101240.94;5050364;28;20377;-72
2023/01/20 11:05:25;;;;;;;;;;;;;;;18.60;42.72;101246.63;5044115;28;20044;-73
2023/01/20 11:07:53;;;;;;;5.03;1.90;;;;;;;18.58;42.82;101251.16;5050729;28;19916;-72
2023/01/20 11:10:23;;;;;;;4.68;1.90;;;;;;;18.54;42.87;101247.91;5050774;28;20037;-74
2023/01/20 11:12:51;;;;;;;3.30;1.40;;;;;;;18.54;42.80;101252.34;5050327;28;20033;-74
2023/01/20 11:15:28;;;;;;;4.72;1.90;;;;;;;18.47;42.86;101242.28;5051231;28;20082;-72
2023/01/20 11:18:15;;;;;;;4.97;1.98;;;;;;;18.49;42.66;101245.63;5051065;28;20893;-75
2023/01/20 11:20:47;;;;;;;7.57;1.95;;;;;;;18.48;42.84;101249.25;5050288;28;20400;-73
2023/01/20 11:23:22;;;;;;;4.38;1.73;;;;;;;18.47;43.17;101252.81;5050849;28;20064;-70
2023/01/20 11:26:09;;;;;;;6.07;1.88;;;;;;;18.45;42.66;101251.25;5051161;28;20078;-71
2023/01/20 11:28:53;;;;;;;4.57;1.65;;;;;;;18.47;42.95;101250.19;5050942;28;20071;-69
2023/01/20 11:31:20;;;;;;;5.60;1.67;;;;;;;18.46;42.90;101247.66;5049762;28;20044;-71
2023/01/20 11:34:01;;;;;;;5.97;2.05;;;;;;;18.45;42.43;101244.19;5050293;28;20087;-70
2023/01/20 11:36:27;;;;;;;4.55;1.70;;;;;;;18.46;42.57;101245.84;5051105;28;20036;-71
2023/01/20 11:38:55;;;;;;;3.45;1.60;;;;;;;18.45;42.51;101244.19;5048750;28;20033;-72
2023/01/20 11:41:26;;;;;;;4.18;1.85;;;;;;;18.42;42.31;101243.56;5050466;28;20054;-71
2023/01/20 11:43:54;;;;;;;5.45;1.80;;;;;;;18.46;42.23;101253.78;5050056;28;20052;-74